sensor_id;sensor_type;location;lat;lon;timestamp;pressure;altitude;pressure_sealevel;temperature
78369;BMP280;71113;43.092;-89.268;2024-01-06T00:02:12;98262.28;;;20.68
78369;BMP280;71113;43.092;-89.268;2024-01-06T00:04:38;98250.91;;;20.68
78369;BMP280;71113;43.092;-89.268;2024-01-06T00:07:04;98256.09;;;20.64
78369;BMP280;71113;43.092;-89.268;2024-01-06T00:09:30;98272.75;;;20.65
78369;BMP280;71113;43.092;-89.268;2024-01-06T00:11:56;98269.75;;;20.66
78369;BMP280;71113;43.092;-89.268;2024-01-06T00:14:22;98264.81;;;20.65
78369;BMP280;71113;43.092;-89.268;2024-01-06T00:16:48;98255.94;;;20.61
78369;BMP280;71113;43.092;-89.268;2024-01-06T00:19:14;98251.00;;;20.59
78369;BMP280;71113;43.092;-89.268;2024-01-06T00:21:40;98267.22;;;20.58
78369;BMP280;71113;43.092;-89.268;2024-01-06T00:24:05;98274.38;;;20.57
78369;BMP280;71113;43.092;-89.268;2024-01-06T00:26:31;98262.47;;;20.51
78369;BMP280;71113;43.092;-89.268;2024-01-06T00:28:57;98264.78;;;20.53
78369;BMP280;71113;43.092;-89.268;2024-01-06T00:31:23;98250.75;;;20.52
78369;BMP280;71113;43.092;-89.268;2024-01-06T00:33:49;98245.88;;;20.54
78369;BMP280;71113;43.092;-89.268;2024-01-06T00:36:15;98239.94;;;20.57
78369;BMP280;71113;43.092;-89.268;2024-01-06T00:38:41;98247.25;;;20.60
78369;BMP280;71113;43.092;-89.268;2024-01-06T00:41:07;98242.38;;;20.62
78369;BMP280;71113;43.092;-89.268;2024-01-06T00:43:33;98247.59;;;20.59
78369;BMP280;71113;43.092;-89.268;2024-01-06T00:45:58;98258.38;;;20.54
78369;BMP280;71113;43.092;-89.268;2024-01-06T00:48:24;98268.19;;;20.53
78369;BMP280;71113;43.092;-89.268;2024-01-06T00:50:50;98264.00;;;20.52
78369;BMP280;71113;43.092;-89.268;2024-01-06T00:53:16;98266.66;;;20.52
78369;BMP280;71113;43.092;-89.268;2024-01-06T00:55:42;98249.53;;;20.50
78369;BMP280;71113;43.092;-89.268;2024-01-06T00:58:08;98248.31;;;20.47
78369;BMP280;71113;43.092;-89.268;2024-01-06T01:00:34;98244.09;;;20.46
78369;BMP280;71113;43.092;-89.268;2024-01-06T01:03:00;98253.81;;;20.42
78369;BMP280;71113;43.092;-89.268;2024-01-06T01:05:26;98259.13;;;20.42
78369;BMP280;71113;43.092;-89.268;2024-01-06T01:07:52;98257.56;;;20.41
78369;BMP280;71113;43.092;-89.268;2024-01-06T01:10:18;98255.59;;;20.38
78369;BMP280;71113;43.092;-89.268;2024-01-06T01:12:44;98260.00;;;20.34
78369;BMP280;71113;43.092;-89.268;2024-01-06T01:15:10;98259.22;;;20.33
78369;BMP280;71113;43.092;-89.268;2024-01-06T01:17:36;98260.66;;;20.31
78369;BMP280;71113;43.092;-89.268;2024-01-06T01:20:03;98272.66;;;20.28
78369;BMP280;71113;43.092;-89.268;2024-01-06T01:22:29;98269.13;;;20.24
78369;BMP280;71113;43.092;-89.268;2024-01-06T01:24:55;98263.72;;;20.21
78369;BMP280;71113;43.092;-89.268;2024-01-06T01:27:21;98262.91;;;20.20
78369;BMP280;71113;43.092;-89.268;2024-01-06T01:29:47;98263.22;;;20.19
78369;BMP280;71113;43.092;-89.268;2024-01-06T01:32:15;98262.13;;;20.20
78369;BMP280;71113;43.092;-89.268;2024-01-06T01:34:41;98263.50;;;20.26
78369;BMP280;71113;43.092;-89.268;2024-01-06T01:37:07;98266.38;;;20.33
78369;BMP280;71113;43.092;-89.268;2024-01-06T01:39:33;98267.59;;;20.35
78369;BMP280;71113;43.092;-89.268;2024-01-06T01:41:59;98269.47;;;20.35
78369;BMP280;71113;43.092;-89.268;2024-01-06T01:44:25;98251.16;;;20.30
78369;BMP280;71113;43.092;-89.268;2024-01-06T01:46:51;98247.94;;;20.24
78369;BMP280;71113;43.092;-89.268;2024-01-06T01:49:17;98252.78;;;20.22
78369;BMP280;71113;43.092;-89.268;2024-01-06T01:51:43;98259.19;;;20.21
78369;BMP280;71113;43.092;-89.268;2024-01-06T01:54:10;98238.63;;;20.18
78369;BMP280;71113;43.092;-89.268;2024-01-06T01:56:36;98228.38;;;20.17
78369;BMP280;71113;43.092;-89.268;2024-01-06T01:59:11;98218.84;;;20.16
78369;BMP280;71113;43.092;-89.268;2024-01-06T02:01:38;98202.19;;;20.15
78369;BMP280;71113;43.092;-89.268;2024-01-06T02:04:04;98194.91;;;20.12
78369;BMP280;71113;43.092;-89.268;2024-01-06T02:06:30;98200.88;;;20.09
78369;BMP280;71113;43.092;-89.268;2024-01-06T02:08:56;98188.72;;;20.08
78369;BMP280;71113;43.092;-89.268;2024-01-06T02:11:22;98186.75;;;20.05
78369;BMP280;71113;43.092;-89.268;2024-01-06T02:13:49;98186.75;;;20.05
78369;BMP280;71113;43.092;-89.268;2024-01-06T02:16:15;98180.31;;;20.06
78369;BMP280;71113;43.092;-89.268;2024-01-06T02:18:41;98173.03;;;20.03
78369;BMP280;71113;43.092;-89.268;2024-01-06T02:21:08;98172.59;;;20.01
78369;BMP280;71113;43.092;-89.268;2024-01-06T02:23:35;98163.53;;;20.02
78369;BMP280;71113;43.092;-89.268;2024-01-06T02:26:03;98168.06;;;20.01
78369;BMP280;71113;43.092;-89.268;2024-01-06T02:28:29;98169.28;;;20.04
78369;BMP280;71113;43.092;-89.268;2024-01-06T02:30:55;98161.78;;;20.06
78369;BMP280;71113;43.092;-89.268;2024-01-06T02:33:21;98160.47;;;20.12
78369;BMP280;71113;43.092;-89.268;2024-01-06T02:35:49;98160.69;;;20.19
78369;BMP280;71113;43.092;-89.268;2024-01-06T02:38:15;98156.28;;;20.23
78369;BMP280;71113;43.092;-89.268;2024-01-06T02:40:41;98160.97;;;20.26
78369;BMP280;71113;43.092;-89.268;2024-01-06T02:43:08;98154.00;;;20.22
78369;BMP280;71113;43.092;-89.268;2024-01-06T02:45:35;98158.72;;;20.16
78369;BMP280;71113;43.092;-89.268;2024-01-06T02:48:01;98175.72;;;20.15
78369;BMP280;71113;43.092;-89.268;2024-01-06T02:50:27;98174.81;;;20.11
78369;BMP280;71113;43.092;-89.268;2024-01-06T02:52:53;98177.69;;;20.06
78369;BMP280;71113;43.092;-89.268;2024-01-06T02:55:19;98182.19;;;20.05
78369;BMP280;71113;43.092;-89.268;2024-01-06T02:57:45;98173.50;;;20.05
78369;BMP280;71113;43.092;-89.268;2024-01-06T03:00:11;98165.56;;;20.05
78369;BMP280;71113;43.092;-89.268;2024-01-06T03:02:38;98168.06;;;20.01
78369;BMP280;71113;43.092;-89.268;2024-01-06T03:05:08;98160.44;;;20.00
78369;BMP280;71113;43.092;-89.268;2024-01-06T03:07:34;98167.63;;;19.99
78369;BMP280;71113;43.092;-89.268;2024-01-06T03:10:00;98166.84;;;19.99
78369;BMP280;71113;43.092;-89.268;2024-01-06T03:12:26;98164.84;;;19.96
78369;BMP280;71113;43.092;-89.268;2024-01-06T03:14:52;98168.59;;;19.95
78369;BMP280;71113;43.092;-89.268;2024-01-06T03:17:18;98159.56;;;19.96
78369;BMP280;71113;43.092;-89.268;2024-01-06T03:19:44;98155.38;;;19.95
78369;BMP280;71113;43.092;-89.268;2024-01-06T03:22:10;98153.81;;;19.94
78369;BMP280;71113;43.092;-89.268;2024-01-06T03:24:36;98152.25;;;19.93
78369;BMP280;71113;43.092;-89.268;2024-01-06T03:27:02;98142.53;;;19.97
78369;BMP280;71113;43.092;-89.268;2024-01-06T03:29:28;98140.69;;;19.97
78369;BMP280;71113;43.092;-89.268;2024-01-06T03:31:55;98142.91;;;19.95
78369;BMP280;71113;43.092;-89.268;2024-01-06T03:34:21;98139.59;;;19.98
78369;BMP280;71113;43.092;-89.268;2024-01-06T03:36:47;98147.22;;;20.00
78369;BMP280;71113;43.092;-89.268;2024-01-06T03:39:13;98139.59;;;19.98
78369;BMP280;71113;43.092;-89.268;2024-01-06T03:41:39;98150.31;;;20.02
78369;BMP280;71113;43.092;-89.268;2024-01-06T03:44:05;98152.97;;;20.02
78369;BMP280;71113;43.092;-89.268;2024-01-06T03:46:35;98155.28;;;20.03
78369;BMP280;71113;43.092;-89.268;2024-01-06T03:49:01;98146.22;;;20.04
78369;BMP280;71113;43.092;-89.268;2024-01-06T03:51:27;98148.88;;;20.04
78369;BMP280;71113;43.092;-89.268;2024-01-06T03:53:54;98142.47;;;20.05
78369;BMP280;71113;43.092;-89.268;2024-01-06T03:56:20;98151.97;;;20.06
78369;BMP280;71113;43.092;-89.268;2024-01-06T03:58:46;98156.50;;;20.06
78369;BMP280;71113;43.092;-89.268;2024-01-06T04:01:12;98143.25;;;20.06
78369;BMP280;71113;43.092;-89.268;2024-01-06T04:03:39;98142.63;;;20.09
78369;BMP280;71113;43.092;-89.268;2024-01-06T04:06:08;98137.31;;;20.09
78369;BMP280;71113;43.092;-89.268;2024-01-06T04:08:36;98133.88;;;20.08
78369;BMP280;71113;43.092;-89.268;2024-01-06T04:11:02;98131.69;;;20.10
78369;BMP280;71113;43.092;-89.268;2024-01-06T04:13:28;98126.03;;;20.12
78369;BMP280;71113;43.092;-89.268;2024-01-06T04:15:54;98135.56;;;20.13
78369;BMP280;71113;43.092;-89.268;2024-01-06T04:18:20;98131.03;;;20.14
78369;BMP280;71113;43.092;-89.268;2024-01-06T04:20:46;98132.56;;;20.15
78369;BMP280;71113;43.092;-89.268;2024-01-06T04:23:12;98121.19;;;20.14
78369;BMP280;71113;43.092;-89.268;2024-01-06T04:25:38;98115.16;;;20.14
78369;BMP280;71113;43.092;-89.268;2024-01-06T04:28:05;98112.91;;;20.16
78369;BMP280;71113;43.092;-89.268;2024-01-06T04:30:31;98118.22;;;20.16
78369;BMP280;71113;43.092;-89.268;2024-01-06T04:32:57;98119.00;;;20.16
78369;BMP280;71113;43.092;-89.268;2024-01-06T04:35:24;98116.34;;;20.16
78369;BMP280;71113;43.092;-89.268;2024-01-06T04:37:51;98116.78;;;20.18
78369;BMP280;71113;43.092;-89.268;2024-01-06T04:40:17;98105.44;;;20.18
78369;BMP280;71113;43.092;-89.268;2024-01-06T04:42:43;98103.53;;;20.18
78369;BMP280;71113;43.092;-89.268;2024-01-06T04:45:09;98105.84;;;20.20
78369;BMP280;71113;43.092;-89.268;2024-01-06T04:47:35;98105.09;;;20.19
78369;BMP280;71113;43.092;-89.268;2024-01-06T04:50:01;98091.06;;;20.19
78369;BMP280;71113;43.092;-89.268;2024-01-06T04:52:28;98098.69;;;20.20
78369;BMP280;71113;43.092;-89.268;2024-01-06T04:54:55;98101.03;;;20.22
78369;BMP280;71113;43.092;-89.268;2024-01-06T04:57:21;98099.16;;;20.22
78369;BMP280;71113;43.092;-89.268;2024-01-06T04:59:48;98096.38;;;20.19
78369;BMP280;71113;43.092;-89.268;2024-01-06T05:02:15;98078.19;;;20.17
78369;BMP280;71113;43.092;-89.268;2024-01-06T05:04:41;98085.25;;;20.13
78369;BMP280;71113;43.092;-89.268;2024-01-06T05:07:07;98081.34;;;20.10
78369;BMP280;71113;43.092;-89.268;2024-01-06T05:09:32;98084.78;;;20.11
78369;BMP280;71113;43.092;-89.268;2024-01-06T05:11:58;98081.72;;;20.09
78369;BMP280;71113;43.092;-89.268;2024-01-06T05:14:24;98084.66;;;20.07
78369;BMP280;71113;43.092;-89.268;2024-01-06T05:16:50;98085.31;;;20.04
78369;BMP280;71113;43.092;-89.268;2024-01-06T05:19:16;98089.41;;;20.02
78369;BMP280;71113;43.092;-89.268;2024-01-06T05:21:47;98084.78;;;19.99
78369;BMP280;71113;43.092;-89.268;2024-01-06T05:24:14;98089.59;;;19.97
78369;BMP280;71113;43.092;-89.268;2024-01-06T05:26:40;98077.81;;;19.94
78369;BMP280;71113;43.092;-89.268;2024-01-06T05:29:06;98079.25;;;19.92
78369;BMP280;71113;43.092;-89.268;2024-01-06T05:31:31;98073.50;;;19.90
78369;BMP280;71113;43.092;-89.268;2024-01-06T05:33:57;98068.88;;;19.87
78369;BMP280;71113;43.092;-89.268;2024-01-06T05:36:23;98065.75;;;19.85
78369;BMP280;71113;43.092;-89.268;2024-01-06T05:38:49;98059.56;;;19.80
78369;BMP280;71113;43.092;-89.268;2024-01-06T05:41:15;98057.28;;;19.79
78369;BMP280;71113;43.092;-89.268;2024-01-06T05:43:41;98059.47;;;19.77
78369;BMP280;71113;43.092;-89.268;2024-01-06T05:46:07;98052.19;;;19.74
78369;BMP280;71113;43.092;-89.268;2024-01-06T05:48:34;98048.31;;;19.71
78369;BMP280;71113;43.092;-89.268;2024-01-06T05:51:00;98042.91;;;19.68
78369;BMP280;71113;43.092;-89.268;2024-01-06T05:53:25;98043.25;;;19.66
78369;BMP280;71113;43.092;-89.268;2024-01-06T05:55:52;98034.84;;;19.64
78369;BMP280;71113;43.092;-89.268;2024-01-06T05:58:18;98038.50;;;19.60
78369;BMP280;71113;43.092;-89.268;2024-01-06T06:00:44;98028.88;;;19.55
78369;BMP280;71113;43.092;-89.268;2024-01-06T06:03:11;98015.97;;;19.54
78369;BMP280;71113;43.092;-89.268;2024-01-06T06:05:37;98014.09;;;19.54
78369;BMP280;71113;43.092;-89.268;2024-01-06T06:08:03;98007.25;;;19.53
78369;BMP280;71113;43.092;-89.268;2024-01-06T06:10:29;98001.06;;;19.49
78369;BMP280;71113;43.092;-89.268;2024-01-06T06:13:06;98006.25;;;19.45
78369;BMP280;71113;43.092;-89.268;2024-01-06T06:15:32;98000.19;;;19.45
78369;BMP280;71113;43.092;-89.268;2024-01-06T06:17:58;97997.09;;;19.43
78369;BMP280;71113;43.092;-89.268;2024-01-06T06:20:28;97996.66;;;19.41
78369;BMP280;71113;43.092;-89.268;2024-01-06T06:22:54;97985.19;;;19.37
78369;BMP280;71113;43.092;-89.268;2024-01-06T06:25:20;97984.69;;;19.35
78369;BMP280;71113;43.092;-89.268;2024-01-06T06:27:46;97971.84;;;19.33
78369;BMP280;71113;43.092;-89.268;2024-01-06T06:30:12;97972.94;;;19.32
78369;BMP280;71113;43.092;-89.268;2024-01-06T06:32:38;97967.94;;;19.31
78369;BMP280;71113;43.092;-89.268;2024-01-06T06:35:04;97964.88;;;19.29
78369;BMP280;71113;43.092;-89.268;2024-01-06T06:37:30;97954.94;;;19.26
78369;BMP280;71113;43.092;-89.268;2024-01-06T06:39:57;97948.13;;;19.25
78369;BMP280;71113;43.092;-89.268;2024-01-06T06:42:23;97940.09;;;19.21
78369;BMP280;71113;43.092;-89.268;2024-01-06T06:44:48;97940.38;;;19.19
78369;BMP280;71113;43.092;-89.268;2024-01-06T06:47:14;97939.50;;;19.15
78369;BMP280;71113;43.092;-89.268;2024-01-06T06:49:40;97930.03;;;19.14
78369;BMP280;71113;43.092;-89.268;2024-01-06T06:52:07;97912.94;;;19.12
78369;BMP280;71113;43.092;-89.268;2024-01-06T06:54:32;97910.31;;;19.12
78369;BMP280;71113;43.092;-89.268;2024-01-06T06:56:58;97906.44;;;19.09
78369;BMP280;71113;43.092;-89.268;2024-01-06T06:59:24;97901.34;;;19.04
78369;BMP280;71113;43.092;-89.268;2024-01-06T07:01:50;97886.16;;;19.01
78369;BMP280;71113;43.092;-89.268;2024-01-06T07:04:16;97880.09;;;19.01
78369;BMP280;71113;43.092;-89.268;2024-01-06T07:06:42;97876.25;;;18.98
78369;BMP280;71113;43.092;-89.268;2024-01-06T07:09:08;97867.06;;;18.96
78369;BMP280;71113;43.092;-89.268;2024-01-06T07:11:33;97858.38;;;18.95
78369;BMP280;71113;43.092;-89.268;2024-01-06T07:13:59;97854.50;;;18.93
78369;BMP280;71113;43.092;-89.268;2024-01-06T07:16:25;97855.94;;;18.90
78369;BMP280;71113;43.092;-89.268;2024-01-06T07:18:51;97855.50;;;18.88
78369;BMP280;71113;43.092;-89.268;2024-01-06T07:21:17;97855.81;;;18.86
78369;BMP280;71113;43.092;-89.268;2024-01-06T07:23:42;97843.72;;;18.85
78369;BMP280;71113;43.092;-89.268;2024-01-06T07:26:08;97844.66;;;18.81
78369;BMP280;71113;43.092;-89.268;2024-01-06T07:28:34;97843.13;;;18.80
78369;BMP280;71113;43.092;-89.268;2024-01-06T07:31:00;97846.91;;;18.79
78369;BMP280;71113;43.092;-89.268;2024-01-06T07:33:26;97843.78;;;18.77
78369;BMP280;71113;43.092;-89.268;2024-01-06T07:35:52;97841.50;;;18.75
78369;BMP280;71113;43.092;-89.268;2024-01-06T07:38:18;97838.72;;;18.72
78369;BMP280;71113;43.092;-89.268;2024-01-06T07:40:44;97825.84;;;18.70
78369;BMP280;71113;43.092;-89.268;2024-01-06T07:43:10;97825.06;;;18.70
78369;BMP280;71113;43.092;-89.268;2024-01-06T07:45:36;97823.06;;;18.67
78369;BMP280;71113;43.092;-89.268;2024-01-06T07:48:03;97823.72;;;18.64
78369;BMP280;71113;43.092;-89.268;2024-01-06T07:50:29;97810.81;;;18.62
78369;BMP280;71113;43.092;-89.268;2024-01-06T07:52:54;97806.97;;;18.60
78369;BMP280;71113;43.092;-89.268;2024-01-06T07:55:20;97805.44;;;18.59
78369;BMP280;71113;43.092;-89.268;2024-01-06T07:57:46;97800.47;;;18.57
78369;BMP280;71113;43.092;-89.268;2024-01-06T08:00:13;97798.47;;;18.54
78369;BMP280;71113;43.092;-89.268;2024-01-06T08:02:42;97789.00;;;18.53
78369;BMP280;71113;43.092;-89.268;2024-01-06T08:05:08;97782.50;;;18.50
78369;BMP280;71113;43.092;-89.268;2024-01-06T08:07:34;97775.56;;;18.46
78369;BMP280;71113;43.092;-89.268;2024-01-06T08:10:00;97771.72;;;18.43
78369;BMP280;71113;43.092;-89.268;2024-01-06T08:12:26;97774.34;;;18.43
78369;BMP280;71113;43.092;-89.268;2024-01-06T08:14:52;97772.38;;;18.40
78369;BMP280;71113;43.092;-89.268;2024-01-06T08:17:18;97775.00;;;18.40
78369;BMP280;71113;43.092;-89.268;2024-01-06T08:19:43;97763.22;;;18.38
78369;BMP280;71113;43.092;-89.268;2024-01-06T08:22:12;97767.38;;;18.39
78369;BMP280;71113;43.092;-89.268;2024-01-06T08:24:38;97766.50;;;18.35
78369;BMP280;71113;43.092;-89.268;2024-01-06T08:27:04;97776.63;;;18.33
78369;BMP280;71113;43.092;-89.268;2024-01-06T08:29:30;97789.38;;;18.31
78369;BMP280;71113;43.092;-89.268;2024-01-06T08:31:56;97792.34;;;18.29
78369;BMP280;71113;43.092;-89.268;2024-01-06T08:34:22;97789.25;;;18.27
78369;BMP280;71113;43.092;-89.268;2024-01-06T08:36:48;97789.25;;;18.27
78369;BMP280;71113;43.092;-89.268;2024-01-06T08:39:14;97783.19;;;18.26
78369;BMP280;71113;43.092;-89.268;2024-01-06T08:41:40;97795.19;;;18.24
78369;BMP280;71113;43.092;-89.268;2024-01-06T08:44:06;97798.91;;;18.23
78369;BMP280;71113;43.092;-89.268;2024-01-06T08:46:32;97794.72;;;18.22
78369;BMP280;71113;43.092;-89.268;2024-01-06T08:48:57;97792.72;;;18.19
78369;BMP280;71113;43.092;-89.268;2024-01-06T08:51:23;97788.56;;;18.18
78369;BMP280;71113;43.092;-89.268;2024-01-06T08:53:49;97798.22;;;18.14
78369;BMP280;71113;43.092;-89.268;2024-01-06T08:56:15;97790.31;;;18.14
78369;BMP280;71113;43.092;-89.268;2024-01-06T08:58:43;97786.41;;;18.11
78369;BMP280;71113;43.092;-89.268;2024-01-06T09:01:09;97792.47;;;18.12
78369;BMP280;71113;43.092;-89.268;2024-01-06T09:03:36;97789.38;;;18.10
78369;BMP280;71113;43.092;-89.268;2024-01-06T09:06:02;97787.88;;;18.09
78369;BMP280;71113;43.092;-89.268;2024-01-06T09:08:28;97776.53;;;18.08
78369;BMP280;71113;43.092;-89.268;2024-01-06T09:10:55;97777.94;;;18.06
78369;BMP280;71113;43.092;-89.268;2024-01-06T09:13:44;97785.41;;;18.04
78369;BMP280;71113;43.092;-89.268;2024-01-06T09:16:10;97778.59;;;18.03
78369;BMP280;71113;43.092;-89.268;2024-01-06T09:18:36;97775.81;;;17.99
78369;BMP280;71113;43.092;-89.268;2024-01-06T09:21:02;97773.94;;;18.00
78369;BMP280;71113;43.092;-89.268;2024-01-06T09:23:28;97768.22;;;17.98
78369;BMP280;71113;43.092;-89.268;2024-01-06T09:25:54;97768.53;;;17.96
78369;BMP280;71113;43.092;-89.268;2024-01-06T09:28:20;97754.25;;;17.97
78369;BMP280;71113;43.092;-89.268;2024-01-06T09:30:47;97746.22;;;17.93
78369;BMP280;71113;43.092;-89.268;2024-01-06T09:33:12;97741.38;;;17.95
78369;BMP280;71113;43.092;-89.268;2024-01-06T09:35:41;97729.63;;;17.93
78369;BMP280;71113;43.092;-89.268;2024-01-06T09:38:08;97727.75;;;17.93
78369;BMP280;71113;43.092;-89.268;2024-01-06T09:40:34;97724.63;;;17.91
78369;BMP280;71113;43.092;-89.268;2024-01-06T09:43:00;97715.63;;;17.92
78369;BMP280;71113;43.092;-89.268;2024-01-06T09:45:28;97703.88;;;17.90
78369;BMP280;71113;43.092;-89.268;2024-01-06T09:47:55;97698.13;;;17.88
78369;BMP280;71113;43.092;-89.268;2024-01-06T09:50:21;97698.91;;;17.88
78369;BMP280;71113;43.092;-89.268;2024-01-06T09:52:48;97695.81;;;17.86
78369;BMP280;71113;43.092;-89.268;2024-01-06T09:55:26;97685.59;;;17.85
78369;BMP280;71113;43.092;-89.268;2024-01-06T09:57:53;97684.81;;;17.84
78369;BMP280;71113;43.092;-89.268;2024-01-06T10:00:20;97680.19;;;17.81
78369;BMP280;71113;43.092;-89.268;2024-01-06T10:02:47;97683.91;;;17.80
78369;BMP280;71113;43.092;-89.268;2024-01-06T10:05:15;97678.50;;;17.77
78369;BMP280;71113;43.092;-89.268;2024-01-06T10:07:45;97676.63;;;17.77
78369;BMP280;71113;43.092;-89.268;2024-01-06T10:10:11;97674.31;;;17.76
78369;BMP280;71113;43.092;-89.268;2024-01-06T10:12:41;97683.00;;;17.76
78369;BMP280;71113;43.092;-89.268;2024-01-06T10:15:08;97673.09;;;17.73
78369;BMP280;71113;43.092;-89.268;2024-01-06T10:17:41;97675.75;;;17.73
78369;BMP280;71113;43.092;-89.268;2024-01-06T10:20:11;97670.47;;;17.73
78369;BMP280;71113;43.092;-89.268;2024-01-06T10:22:38;97666.66;;;17.71
78369;BMP280;71113;43.092;-89.268;2024-01-06T10:25:09;97665.88;;;17.70
78369;BMP280;71113;43.092;-89.268;2024-01-06T10:27:38;97664.31;;;17.69
78369;BMP280;71113;43.092;-89.268;2024-01-06T10:30:06;97652.22;;;17.68
78369;BMP280;71113;43.092;-89.268;2024-01-06T10:32:33;97648.38;;;17.65
78369;BMP280;71113;43.092;-89.268;2024-01-06T10:35:03;97646.03;;;17.64
78369;BMP280;71113;43.092;-89.268;2024-01-06T10:37:31;97646.81;;;17.64
78369;BMP280;71113;43.092;-89.268;2024-01-06T10:42:32;97641.94;;;17.75
78369;BMP280;71113;43.092;-89.268;2024-01-06T10:44:59;97641.69;;;17.80
78369;BMP280;71113;43.092;-89.268;2024-01-06T10:47:26;97644.59;;;17.87
78369;BMP280;71113;43.092;-89.268;2024-01-06T10:50:00;97642.53;;;17.93
78369;BMP280;71113;43.092;-89.268;2024-01-06T10:52:27;97635.63;;;18.01
78369;BMP280;71113;43.092;-89.268;2024-01-06T10:54:54;97619.91;;;18.04
78369;BMP280;71113;43.092;-89.268;2024-01-06T10:57:21;97627.28;;;18.11
78369;BMP280;71113;43.092;-89.268;2024-01-06T10:59:50;97630.81;;;18.15
78369;BMP280;71113;43.092;-89.268;2024-01-06T11:02:17;97626.00;;;18.17
78369;BMP280;71113;43.092;-89.268;2024-01-06T11:04:47;97617.53;;;18.23
78369;BMP280;71113;43.092;-89.268;2024-01-06T11:07:16;97626.44;;;18.31
78369;BMP280;71113;43.092;-89.268;2024-01-06T11:10:20;97619.09;;;18.37
78369;BMP280;71113;43.092;-89.268;2024-01-06T11:13:09;97620.09;;;18.44
78369;BMP280;71113;43.092;-89.268;2024-01-06T11:15:42;97614.91;;;18.48
78369;BMP280;71113;43.092;-89.268;2024-01-06T11:18:09;97609.41;;;18.53
78369;BMP280;71113;43.092;-89.268;2024-01-06T11:20:35;97603.59;;;18.60
78369;BMP280;71113;43.092;-89.268;2024-01-06T11:23:18;97602.59;;;18.64
78369;BMP280;71113;43.092;-89.268;2024-01-06T11:25:46;97599.28;;;18.67
78369;BMP280;71113;43.092;-89.268;2024-01-06T11:28:12;97584.75;;;18.73
78369;BMP280;71113;43.092;-89.268;2024-01-06T11:30:38;97587.59;;;18.80
78369;BMP280;71113;43.092;-89.268;2024-01-06T11:33:04;97584.41;;;18.87
78369;BMP280;71113;43.092;-89.268;2024-01-06T11:35:30;97580.31;;;18.90
78369;BMP280;71113;43.092;-89.268;2024-01-06T11:38:00;97584.72;;;18.98
78369;BMP280;71113;43.092;-89.268;2024-01-06T11:40:35;97581.50;;;19.04
78369;BMP280;71113;43.092;-89.268;2024-01-06T11:43:02;97583.50;;;19.07
78369;BMP280;71113;43.092;-89.268;2024-01-06T11:45:29;97573.88;;;19.15
78369;BMP280;71113;43.092;-89.268;2024-01-06T11:48:00;97579.34;;;19.22
78369;BMP280;71113;43.092;-89.268;2024-01-06T11:50:27;97573.41;;;19.25
78369;BMP280;71113;43.092;-89.268;2024-01-06T11:52:54;97561.81;;;19.30
78369;BMP280;71113;43.092;-89.268;2024-01-06T11:55:20;97557.16;;;19.39
78369;BMP280;71113;43.092;-89.268;2024-01-06T11:57:46;97546.66;;;19.42
78369;BMP280;71113;43.092;-89.268;2024-01-06T12:00:16;97533.97;;;19.48
78369;BMP280;71113;43.092;-89.268;2024-01-06T12:02:43;97538.91;;;19.49
78369;BMP280;71113;43.092;-89.268;2024-01-06T12:05:16;97540.22;;;19.56
78369;BMP280;71113;43.092;-89.268;2024-01-06T12:07:52;97535.88;;;19.63
78369;BMP280;71113;43.092;-89.268;2024-01-06T12:10:21;97539.19;;;19.60
78369;BMP280;71113;43.092;-89.268;2024-01-06T12:15:24;97529.00;;;19.46
78369;BMP280;71113;43.092;-89.268;2024-01-06T12:17:50;97535.75;;;19.44
78369;BMP280;71113;43.092;-89.268;2024-01-06T12:20:16;97532.66;;;19.42
78369;BMP280;71113;43.092;-89.268;2024-01-06T12:22:42;97511.84;;;19.40
78369;BMP280;71113;43.092;-89.268;2024-01-06T12:25:09;97507.31;;;19.41
78369;BMP280;71113;43.092;-89.268;2024-01-06T12:27:35;97503.91;;;19.40
78369;BMP280;71113;43.092;-89.268;2024-01-06T12:30:01;97496.31;;;19.39
78369;BMP280;71113;43.092;-89.268;2024-01-06T12:32:28;97493.34;;;19.40
78369;BMP280;71113;43.092;-89.268;2024-01-06T12:34:54;97487.78;;;19.45
78369;BMP280;71113;43.092;-89.268;2024-01-06T12:37:23;97488.72;;;19.53
78369;BMP280;71113;43.092;-89.268;2024-01-06T12:39:50;97477.97;;;19.62
78369;BMP280;71113;43.092;-89.268;2024-01-06T12:42:17;97487.22;;;19.68
78369;BMP280;71113;43.092;-89.268;2024-01-06T12:44:43;97484.00;;;19.74
78369;BMP280;71113;43.092;-89.268;2024-01-06T12:47:09;97481.75;;;19.76
78369;BMP280;71113;43.092;-89.268;2024-01-06T12:49:35;97481.34;;;19.74
78369;BMP280;71113;43.092;-89.268;2024-01-06T12:52:01;97472.53;;;19.70
78369;BMP280;71113;43.092;-89.268;2024-01-06T12:54:27;97476.22;;;19.66
78369;BMP280;71113;43.092;-89.268;2024-01-06T12:56:53;97476.56;;;19.64
78369;BMP280;71113;43.092;-89.268;2024-01-06T12:59:19;97475.34;;;19.62
78369;BMP280;71113;43.092;-89.268;2024-01-06T13:01:45;97479.13;;;19.61
78369;BMP280;71113;43.092;-89.268;2024-01-06T13:04:11;97471.19;;;19.61
78369;BMP280;71113;43.092;-89.268;2024-01-06T13:06:37;97471.53;;;19.59
78369;BMP280;71113;43.092;-89.268;2024-01-06T13:09:05;97469.97;;;19.58
78369;BMP280;71113;43.092;-89.268;2024-01-06T13:11:33;97468.41;;;19.57
78369;BMP280;71113;43.092;-89.268;2024-01-06T13:14:00;97461.63;;;19.56
78369;BMP280;71113;43.092;-89.268;2024-01-06T13:16:25;97460.09;;;19.55
78369;BMP280;71113;43.092;-89.268;2024-01-06T13:18:51;97458.53;;;19.54
78369;BMP280;71113;43.092;-89.268;2024-01-06T13:21:17;97460.78;;;19.52
78369;BMP280;71113;43.092;-89.268;2024-01-06T13:23:43;97466.47;;;19.54
78369;BMP280;71113;43.092;-89.268;2024-01-06T13:26:09;97459.06;;;19.60
78369;BMP280;71113;43.092;-89.268;2024-01-06T13:28:35;97454.34;;;19.69
78369;BMP280;71113;43.092;-89.268;2024-01-06T13:31:01;97458.28;;;19.75
78369;BMP280;71113;43.092;-89.268;2024-01-06T13:33:27;97458.38;;;19.78
78369;BMP280;71113;43.092;-89.268;2024-01-06T13:35:54;97458.53;;;19.86
78369;BMP280;71113;43.092;-89.268;2024-01-06T13:38:20;97459.38;;;19.90
78369;BMP280;71113;43.092;-89.268;2024-01-06T13:40:47;97460.91;;;19.91
78369;BMP280;71113;43.092;-89.268;2024-01-06T13:43:13;97455.09;;;19.85
78369;BMP280;71113;43.092;-89.268;2024-01-06T13:45:42;97443.28;;;19.79
78369;BMP280;71113;43.092;-89.268;2024-01-06T13:48:09;97445.81;;;19.75